Airfield :
LOGIN :

Register | Disclaimer

   EN    FR    IT 

 










Legend :    VFR   Marginal VFR   IFR   Intensive IFR   Very Intensive IFR
Visi :
Ceiling :
>= 8 km
>= 3000ft
5 to 8 km
1000 to 3000 ft
1500m to 5 km
500 to 1000 ft
800 to 1500m
200 to 500 ft
< 800m
< 200 ft
Symbols :   Thunderstorms  Fog  Heavy snow  Heavy precipitations  Wind > 20 kt
SIGMETs :     Misc.  Thunderstorms  Icing  Turbulence  Mountain Waves  Volcanic Ashes






- Airport Elevation : 788 ft
- IATA code : DCM


LFCK - Castres-Mazamet

CURRENT METAR :
  • 301400Z AUTO VRB02KT 9999 OVC011 06/03 Q1018 NOSIG

EXPIRED METARs :
  • 301330Z AUTO VRB02KT 9999 OVC010 06/03 Q1018 NOSIG
  • 301300Z AUTO VRB02KT 9999 OVC010 05/03 Q1018 NOSIG
  • 301230Z AUTO 30004KT 250V360 9999 OVC010 05/03 Q1019 NOSIG
  • 301200Z AUTO 30003KT 250V350 9999 OVC009 05/03 Q1019 BECMG BKN011
  • 301130Z AUTO 00000KT 9999 OVC009 05/03 Q1019 BECMG BKN012

TAF TAF LFCK
Valid from the 30 at 12:00 until the 30 at 21:00 UTC


301100Z 3012/3021 VRB03KT 9999 OVC009
BECMG 3013/3015 BKN011
BECMG 3017/3019 OVC007



MET'MAP, your aeronautical weather chart ! - Copyright ORBIFLY December 2007 - Disclaimer

ORBIFLY MET'MAP TEAM :

Programming & Development : Alexandra Zaïnal
Original concept : Baudouin d'Aumeries
Technical & hardware support : Manuel Goepfert
Assistance : Marc-Olivier Méhu




SOURCES & CREDITS :

   NOAA